createdAt,value
2022-11-25T00:01:32.269Z,99.90
2022-11-25T00:04:00.604Z,99.90
2022-11-25T00:06:31.457Z,99.90
2022-11-25T00:09:07.924Z,99.90
2022-11-25T00:11:36.934Z,99.90
2022-11-25T00:14:05.152Z,99.90
2022-11-25T00:16:32.714Z,99.90
2022-11-25T00:19:00.392Z,99.90
2022-11-25T00:21:31.160Z,99.90
2022-11-25T00:24:01.877Z,99.90
2022-11-25T00:26:32.832Z,99.90
2022-11-25T00:29:02.594Z,99.90
2022-11-25T00:31:35.404Z,99.90
2022-11-25T00:34:03.291Z,99.90
2022-11-25T00:36:36.795Z,99.90
2022-11-25T00:39:13.461Z,99.90
2022-11-25T00:41:59.463Z,99.90
2022-11-25T00:44:37.291Z,99.90
2022-11-25T00:47:17.001Z,99.90
2022-11-25T00:49:49.838Z,99.90
2022-11-25T00:52:20.428Z,99.90
2022-11-25T00:54:49.802Z,99.90
2022-11-25T00:57:19.453Z,99.90
2022-11-25T00:59:47.650Z,99.90
2022-11-25T01:02:16.989Z,99.90
2022-11-25T01:04:45.583Z,99.90
2022-11-25T01:07:16.625Z,99.90
2022-11-25T01:09:44.331Z,99.90
2022-11-25T01:12:11.882Z,99.90
2022-11-25T01:14:39.740Z,99.90
2022-11-25T01:17:07.511Z,99.90
2022-11-25T01:19:40.087Z,99.90
2022-11-25T01:22:09.163Z,99.90
2022-11-25T01:24:36.925Z,99.90
2022-11-25T01:27:04.801Z,99.90
2022-11-25T01:29:32.299Z,99.90
2022-11-25T01:31:59.924Z,99.90
2022-11-25T01:34:28.510Z,99.90
2022-11-25T01:39:32.103Z,99.90
2022-11-25T01:42:01.072Z,99.90
2022-11-25T01:44:30.320Z,99.90
2022-11-25T01:47:18.673Z,99.90
2022-11-25T01:49:52.071Z,99.90
2022-11-25T01:52:27.530Z,99.90
2022-11-25T01:55:08.363Z,99.90
2022-11-25T01:57:41.841Z,99.90
2022-11-25T02:00:10.362Z,99.90
2022-11-25T02:02:51.586Z,99.90
2022-11-25T02:05:23.094Z,99.90
2022-11-25T02:07:52.948Z,99.90
2022-11-25T02:10:26.792Z,99.90
2022-11-25T02:12:54.961Z,99.90
2022-11-25T02:15:23.045Z,99.90
2022-11-25T02:17:50.713Z,99.90
2022-11-25T02:20:23.265Z,99.90
2022-11-25T02:23:15.387Z,99.90
2022-11-25T02:25:46.806Z,99.90
2022-11-25T02:28:24.489Z,99.90
2022-11-25T02:30:52.821Z,99.90
2022-11-25T02:33:21.217Z,99.90
2022-11-25T02:35:51.416Z,99.90
2022-11-25T02:38:39.591Z,99.90
2022-11-25T02:41:14.267Z,99.90
2022-11-25T02:43:44.941Z,99.90
2022-11-25T02:46:22.755Z,99.90
2022-11-25T02:49:09.876Z,99.90
2022-11-25T02:51:40.951Z,99.90
2022-11-25T02:54:11.845Z,99.90
2022-11-25T02:56:40.317Z,99.90
2022-11-25T02:59:09.282Z,99.90
2022-11-25T03:01:38.637Z,99.90
2022-11-25T03:04:08.505Z,99.90
2022-11-25T03:06:37.006Z,99.90
2022-11-25T03:09:04.628Z,99.90
2022-11-25T03:11:51.155Z,99.90
2022-11-25T03:14:20.188Z,99.90
2022-11-25T03:16:47.811Z,99.90
2022-11-25T03:19:15.402Z,99.90
2022-11-25T03:21:42.933Z,99.90
2022-11-25T03:24:10.485Z,99.90
2022-11-25T03:26:37.983Z,99.90
2022-11-25T03:29:05.737Z,99.90
2022-11-25T03:31:35.104Z,99.90
2022-11-25T03:34:02.875Z,99.90
2022-11-25T03:36:31.193Z,99.90
2022-11-25T03:38:58.800Z,99.90
2022-11-25T03:41:26.288Z,99.90
2022-11-25T03:43:54.186Z,99.90
2022-11-25T03:46:21.879Z,99.90
2022-11-25T03:48:49.868Z,99.90
2022-11-25T03:51:17.470Z,99.90
2022-11-25T03:53:45.260Z,99.90
2022-11-25T03:56:14.472Z,99.90
2022-11-25T03:58:42.565Z,99.90
2022-11-25T04:01:11.727Z,99.90
2022-11-25T04:03:39.444Z,99.90
2022-11-25T04:06:07.346Z,99.90
2022-11-25T04:08:34.987Z,99.90
2022-11-25T04:11:03.274Z,99.90
2022-11-25T04:13:35.172Z,99.90
2022-11-25T04:16:03.683Z,99.90
2022-11-25T04:18:31.359Z,99.90
2022-11-25T04:21:00.337Z,99.90
2022-11-25T04:23:28.395Z,99.90
2022-11-25T04:26:01.121Z,99.90
2022-11-25T04:28:38.548Z,99.90
2022-11-25T04:31:08.586Z,99.90
2022-11-25T04:33:39.051Z,99.90
2022-11-25T04:36:07.054Z,99.90
2022-11-25T04:38:34.658Z,99.90
2022-11-25T04:41:03.464Z,99.90
2022-11-25T04:43:35.773Z,99.90
2022-11-25T04:48:45.742Z,99.90
2022-11-25T04:51:15.229Z,99.90
2022-11-25T04:53:44.069Z,99.90
2022-11-25T04:56:22.205Z,99.90
2022-11-25T04:59:11.805Z,99.90
2022-11-25T05:01:46.364Z,99.90
2022-11-25T05:04:29.817Z,99.90
2022-11-25T05:06:57.793Z,99.90
2022-11-25T05:09:26.374Z,99.90
2022-11-25T05:12:17.893Z,99.90
2022-11-25T05:14:45.857Z,99.90
2022-11-25T05:17:16.275Z,99.90
2022-11-25T05:19:44.527Z,99.90
2022-11-25T05:22:14.757Z,99.90
2022-11-25T05:24:43.771Z,99.90
2022-11-25T05:27:12.107Z,99.90
2022-11-25T05:29:39.699Z,99.90
2022-11-25T05:32:09.369Z,99.90
2022-11-25T05:34:38.109Z,99.90
2022-11-25T05:37:06.035Z,99.90
2022-11-25T05:39:35.648Z,99.90
2022-11-25T05:42:23.452Z,99.90
2022-11-25T05:44:51.124Z,99.90
2022-11-25T05:47:18.609Z,99.90
2022-11-25T05:49:46.177Z,99.90
2022-11-25T05:52:13.893Z,99.90
2022-11-25T05:54:56.794Z,99.90
2022-11-25T05:57:25.321Z,99.90
2022-11-25T05:59:57.112Z,99.90
2022-11-25T06:02:42.551Z,99.90
2022-11-25T06:05:15.138Z,99.90
2022-11-25T06:07:42.864Z,99.90
2022-11-25T06:10:10.713Z,99.90
2022-11-25T06:12:40.968Z,99.90
2022-11-25T06:15:09.897Z,99.90
2022-11-25T06:17:39.344Z,99.90
2022-11-25T06:20:27.353Z,99.90
2022-11-25T06:22:54.994Z,99.90
2022-11-25T06:25:29.026Z,99.90
2022-11-25T06:28:12.334Z,99.90
2022-11-25T06:30:41.974Z,99.90
2022-11-25T06:33:26.541Z,99.90
2022-11-25T06:35:55.106Z,99.90
2022-11-25T06:38:22.620Z,99.90
2022-11-25T06:40:50.176Z,99.90
2022-11-25T06:43:17.741Z,99.90
2022-11-25T06:45:45.238Z,99.90
2022-11-25T06:48:12.773Z,99.90
2022-11-25T06:50:40.340Z,99.90
2022-11-25T06:53:07.853Z,99.90
2022-11-25T06:55:35.380Z,99.90
2022-11-25T06:58:28.322Z,99.90
2022-11-25T07:00:50.513Z,99.90
2022-11-25T07:03:18.154Z,99.90
2022-11-25T07:05:45.673Z,99.90
2022-11-25T07:08:13.172Z,99.90
2022-11-25T07:10:40.726Z,99.90
2022-11-25T07:13:08.277Z,99.90
2022-11-25T07:15:36.009Z,99.90
2022-11-25T07:18:03.800Z,99.90
2022-11-25T07:20:32.780Z,99.90
2022-11-25T07:23:00.280Z,99.90
2022-11-25T07:25:30.704Z,99.90
2022-11-25T07:27:59.799Z,99.90
2022-11-25T07:31:21.638Z,99.90
2022-11-25T07:33:14.856Z,99.90
2022-11-25T07:35:42.669Z,99.90
2022-11-25T07:38:10.183Z,99.90
2022-11-25T07:40:37.748Z,99.90
2022-11-25T07:43:05.284Z,99.90
2022-11-25T07:45:32.781Z,99.90
2022-11-25T07:48:08.161Z,99.90
2022-11-25T07:50:35.735Z,99.90
2022-11-25T07:53:03.284Z,99.90
2022-11-25T07:55:30.823Z,99.90
2022-11-25T07:57:58.315Z,99.90
2022-11-25T08:00:25.973Z,99.90
2022-11-25T08:02:53.653Z,99.90
2022-11-25T08:05:21.213Z,99.90
2022-11-25T08:07:48.767Z,99.90
2022-11-25T08:10:16.412Z,99.90
2022-11-25T08:12:43.959Z,99.90
2022-11-25T08:15:11.652Z,99.90
2022-11-25T08:17:39.185Z,99.90
2022-11-25T08:20:07.678Z,99.90
2022-11-25T08:22:35.397Z,99.90
2022-11-25T08:25:02.929Z,99.90
2022-11-25T08:27:30.490Z,99.90
2022-11-25T08:29:58.076Z,99.90
2022-11-25T08:32:25.611Z,99.90
2022-11-25T08:34:53.134Z,99.90
2022-11-25T08:37:21.225Z,99.90
2022-11-25T08:39:53.001Z,99.90
2022-11-25T08:42:21.232Z,99.90
2022-11-25T08:44:53.350Z,99.90
2022-11-25T08:47:21.457Z,99.90
2022-11-25T08:49:53.218Z,99.90
2022-11-25T08:52:21.729Z,99.90
2022-11-25T08:54:49.615Z,99.90
2022-11-25T08:57:17.306Z,99.90
2022-11-25T08:59:45.016Z,99.90
2022-11-25T09:02:15.585Z,99.90
2022-11-25T09:04:43.399Z,99.90
2022-11-25T09:07:11.471Z,99.90
2022-11-25T09:09:39.455Z,99.90
2022-11-25T09:12:07.374Z,99.90
2022-11-25T09:14:35.036Z,99.90
2022-11-25T09:17:03.734Z,99.90
2022-11-25T09:19:31.313Z,99.90
2022-11-25T09:21:58.881Z,99.90
2022-11-25T09:24:26.438Z,99.90
2022-11-25T09:26:54.755Z,99.90
2022-11-25T09:29:22.333Z,99.90
2022-11-25T09:31:54.745Z,99.90
2022-11-25T09:34:22.889Z,99.90
2022-11-25T09:36:50.565Z,99.90
2022-11-25T09:39:18.248Z,99.90
2022-11-25T09:42:14.364Z,99.90
2022-11-25T09:45:20.473Z,99.90
2022-11-25T09:48:06.842Z,99.90
2022-11-25T09:50:53.178Z,99.90
2022-11-25T09:53:39.393Z,99.90
2022-11-25T09:56:16.194Z,99.90
2022-11-25T09:59:14.885Z,99.90
2022-11-25T10:02:12.226Z,99.90
2022-11-25T10:04:49.355Z,99.90
2022-11-25T10:07:49.767Z,99.90
2022-11-25T10:10:30.037Z,99.90
2022-11-25T10:12:59.498Z,99.90
2022-11-25T10:15:35.561Z,99.90
2022-11-25T10:18:38.074Z,99.90
2022-11-25T10:21:06.055Z,99.90
2022-11-25T10:23:38.018Z,99.90
2022-11-25T10:26:17.891Z,99.90
2022-11-25T10:28:55.744Z,99.90
2022-11-25T10:31:34.147Z,99.90
2022-11-25T10:34:10.692Z,99.90
2022-11-25T10:36:41.315Z,99.90
2022-11-25T10:39:27.042Z,99.90
2022-11-25T10:42:03.504Z,99.50
2022-11-25T10:44:37.196Z,99.90
2022-11-25T10:47:26.903Z,99.90
2022-11-25T10:50:19.111Z,99.90
2022-11-25T10:53:03.893Z,99.90
2022-11-25T10:55:33.544Z,99.90
2022-11-25T10:58:26.013Z,99.90
2022-11-25T11:01:22.405Z,99.90
2022-11-25T11:04:03.589Z,99.90
2022-11-25T11:06:40.637Z,99.90
2022-11-25T11:09:31.141Z,99.90
2022-11-25T11:12:13.230Z,99.90
2022-11-25T11:14:41.045Z,99.90
2022-11-25T11:17:34.749Z,96.70
2022-11-25T11:20:14.786Z,96.60
2022-11-25T11:22:49.242Z,96.90
2022-11-25T11:25:19.880Z,96.10
2022-11-25T11:27:48.301Z,94.70
2022-11-25T11:30:20.366Z,95.30
2022-11-25T11:32:55.877Z,95.40
2022-11-25T11:35:58.736Z,96.30
2022-11-25T11:38:53.993Z,93.80
2022-11-25T11:42:04.987Z,94.00
2022-11-25T11:44:35.897Z,94.00
2022-11-25T11:47:27.400Z,91.90
2022-11-25T11:50:16.589Z,92.60
2022-11-25T11:52:57.238Z,91.80
2022-11-25T11:56:26.880Z,91.70
2022-11-25T11:58:58.577Z,92.50
2022-11-25T12:01:50.772Z,91.90
2022-11-25T12:04:38.873Z,91.80
2022-11-25T12:07:34.445Z,89.40
2022-11-25T12:10:17.209Z,89.00
2022-11-25T12:13:13.956Z,89.20
2022-11-25T12:16:03.178Z,90.40
2022-11-25T12:18:49.566Z,88.00
2022-11-25T12:21:38.774Z,89.20
2022-11-25T12:24:30.349Z,88.30
2022-11-25T12:27:02.382Z,90.50
2022-11-25T12:29:48.068Z,91.00
2022-11-25T12:32:50.568Z,87.20
2022-11-25T12:36:19.474Z,85.90
2022-11-25T12:38:57.145Z,82.70
2022-11-25T12:41:24.889Z,83.60
2022-11-25T12:44:00.631Z,77.60
2022-11-25T12:46:54.139Z,78.40
2022-11-25T12:49:35.260Z,78.00
2022-11-25T12:52:30.776Z,76.40
2022-11-25T12:55:24.036Z,75.00
2022-11-25T12:57:57.465Z,73.50
2022-11-25T13:00:47.372Z,74.60
2022-11-25T13:03:34.922Z,74.90
2022-11-25T13:06:44.729Z,75.90
2022-11-25T13:09:35.737Z,77.50
2022-11-25T13:12:24.545Z,79.50
2022-11-25T13:15:17.394Z,78.50
2022-11-25T13:17:47.903Z,77.20
2022-11-25T13:20:39.127Z,78.10
2022-11-25T13:23:10.471Z,76.90
2022-11-25T13:25:39.290Z,77.20
2022-11-25T13:28:32.557Z,75.00
2022-11-25T13:31:25.773Z,77.40
2022-11-25T13:34:00.472Z,76.90
2022-11-25T13:36:46.322Z,75.70
2022-11-25T13:39:28.675Z,75.90
2022-11-25T13:42:05.184Z,77.00
2022-11-25T13:44:36.046Z,78.00
2022-11-25T13:47:30.713Z,77.30
2022-11-25T13:50:22.010Z,78.40
2022-11-25T13:53:17.884Z,79.90
2022-11-25T13:55:45.910Z,79.30
2022-11-25T13:58:13.366Z,77.60
2022-11-25T14:00:56.010Z,79.30
2022-11-25T14:03:23.584Z,80.60
2022-11-25T14:06:28.731Z,82.50
2022-11-25T14:09:04.027Z,80.80
2022-11-25T14:11:49.822Z,81.50
2022-11-25T14:14:26.201Z,80.00
2022-11-25T14:17:15.658Z,78.20
2022-11-25T14:20:05.616Z,79.30
2022-11-25T14:23:00.837Z,81.50
2022-11-25T14:25:34.050Z,79.20
2022-11-25T14:28:29.657Z,79.80
2022-11-25T14:31:03.832Z,81.60
2022-11-25T14:33:42.685Z,82.60
2022-11-25T14:36:15.527Z,83.70
2022-11-25T14:38:43.101Z,84.90
2022-11-25T14:41:18.236Z,86.80
2022-11-25T14:43:53.914Z,88.10
2022-11-25T14:46:23.475Z,93.70
2022-11-25T14:48:56.666Z,94.50
2022-11-25T14:51:26.357Z,99.90
2022-11-25T14:53:54.683Z,99.90
2022-11-25T14:56:28.182Z,99.90
2022-11-25T14:58:57.990Z,99.90
2022-11-25T15:01:31.399Z,99.90
2022-11-25T15:04:17.709Z,99.90
2022-11-25T15:06:55.146Z,99.90
2022-11-25T15:09:31.781Z,99.90
2022-11-25T15:12:02.646Z,99.90
2022-11-25T15:14:43.561Z,99.90
2022-11-25T15:17:30.460Z,99.90
2022-11-25T15:20:01.549Z,99.90
2022-11-25T15:22:29.410Z,99.90
2022-11-25T15:25:08.761Z,99.90
2022-11-25T15:27:49.241Z,99.90
2022-11-25T15:30:27.137Z,99.90
2022-11-25T15:32:56.298Z,99.90
2022-11-25T15:35:26.795Z,99.90
2022-11-25T15:37:54.425Z,99.90
2022-11-25T15:40:39.647Z,99.90
2022-11-25T15:43:22.641Z,99.90
2022-11-25T15:45:52.753Z,99.90
2022-11-25T15:48:46.058Z,99.90
2022-11-25T15:51:34.390Z,99.90
2022-11-25T15:54:13.252Z,99.90
2022-11-25T15:56:46.962Z,99.90
2022-11-25T15:59:47.013Z,99.90
2022-11-25T16:02:39.428Z,99.90
2022-11-25T16:05:16.303Z,99.90
2022-11-25T16:07:50.131Z,99.90
2022-11-25T16:10:21.165Z,99.90
2022-11-25T16:13:29.183Z,99.90
2022-11-25T16:16:18.755Z,99.90
2022-11-25T16:18:54.736Z,99.90
2022-11-25T16:21:31.830Z,99.90
2022-11-25T16:24:32.772Z,99.90
2022-11-25T16:27:07.130Z,99.90
2022-11-25T16:29:39.569Z,99.90
2022-11-25T16:32:25.690Z,99.90
2022-11-25T16:34:56.695Z,99.90
2022-11-25T16:37:24.637Z,99.90
2022-11-25T16:39:52.290Z,99.90
2022-11-25T16:42:21.816Z,99.90
2022-11-25T16:44:51.346Z,99.90
2022-11-25T16:47:21.856Z,99.90
2022-11-25T16:49:49.614Z,99.90
2022-11-25T16:52:17.331Z,99.90
2022-11-25T16:54:45.229Z,99.90
2022-11-25T16:57:21.924Z,99.90
2022-11-25T16:59:54.558Z,99.90
2022-11-25T17:02:25.082Z,99.90
2022-11-25T17:04:52.701Z,99.90
2022-11-25T17:07:36.027Z,99.90
2022-11-25T17:10:04.707Z,99.90
2022-11-25T17:12:34.418Z,99.90
2022-11-25T17:15:05.579Z,99.90
2022-11-25T17:17:34.553Z,99.90
2022-11-25T17:20:02.132Z,99.90
2022-11-25T17:22:33.348Z,99.90
2022-11-25T17:25:04.543Z,99.90
2022-11-25T17:27:33.417Z,99.90
2022-11-25T17:30:04.213Z,99.90
2022-11-25T17:32:33.054Z,99.90
2022-11-25T17:35:00.861Z,99.90
2022-11-25T17:37:31.007Z,99.90
2022-11-25T17:39:58.728Z,99.90
2022-11-25T17:42:30.779Z,99.90
2022-11-25T17:45:00.096Z,99.90
2022-11-25T17:47:27.698Z,99.90
2022-11-25T17:49:55.560Z,99.90
2022-11-25T17:52:23.245Z,99.90
2022-11-25T17:54:50.894Z,99.90
2022-11-25T17:57:21.653Z,99.90
2022-11-25T17:59:49.543Z,99.90
2022-11-25T18:02:22.351Z,99.90
2022-11-25T18:04:50.425Z,99.90
2022-11-25T18:07:18.480Z,99.90
2022-11-25T18:12:19.510Z,99.90
2022-11-25T18:14:47.391Z,99.90
2022-11-25T18:17:17.962Z,99.90
2022-11-25T18:19:49.979Z,99.90
2022-11-25T18:22:20.810Z,99.90
2022-11-25T18:24:48.418Z,99.90
2022-11-25T18:27:26.915Z,99.90
2022-11-25T18:29:56.456Z,99.90
2022-11-25T18:32:25.341Z,99.90
2022-11-25T18:34:53.137Z,99.90
2022-11-25T18:37:21.576Z,99.90
2022-11-25T18:39:50.367Z,99.90
2022-11-25T18:42:25.054Z,99.90
2022-11-25T18:44:54.303Z,99.90
2022-11-25T18:47:21.907Z,99.90
2022-11-25T18:49:55.170Z,99.90
2022-11-25T18:52:24.997Z,99.90
2022-11-25T18:54:52.838Z,99.90
2022-11-25T18:57:20.564Z,99.90
2022-11-25T19:00:10.207Z,99.90
2022-11-25T19:02:36.152Z,99.90
2022-11-25T19:05:18.740Z,99.90
2022-11-25T19:07:52.881Z,99.90
2022-11-25T19:10:24.513Z,99.90
2022-11-25T19:12:56.041Z,99.90
2022-11-25T19:15:25.051Z,99.90
2022-11-25T19:17:57.484Z,99.90
2022-11-25T19:20:26.306Z,99.90
2022-11-25T19:23:00.177Z,99.90
2022-11-25T19:25:29.214Z,99.90
2022-11-25T19:28:00.442Z,99.90
2022-11-25T19:30:31.898Z,99.90
2022-11-25T19:33:01.393Z,99.90
2022-11-25T19:35:35.857Z,99.90
2022-11-25T19:38:17.614Z,99.90
2022-11-25T19:40:45.350Z,99.90
2022-11-25T19:43:12.806Z,99.90
2022-11-25T19:45:40.596Z,99.90
2022-11-25T19:48:14.269Z,99.90
2022-11-25T19:50:44.790Z,99.90
2022-11-25T19:53:22.650Z,99.90
2022-11-25T19:55:50.241Z,99.90
2022-11-25T19:58:17.817Z,99.90
2022-11-25T20:00:47.838Z,99.90
2022-11-25T20:03:28.334Z,99.90
2022-11-25T20:05:56.026Z,99.90
2022-11-25T20:08:26.539Z,99.90
2022-11-25T20:10:55.302Z,99.90
2022-11-25T20:13:24.121Z,99.90
2022-11-25T20:15:52.648Z,99.90
2022-11-25T20:18:24.106Z,99.90
2022-11-25T20:20:59.294Z,99.90
2022-11-25T20:23:43.362Z,99.90
2022-11-25T20:26:36.050Z,99.90
2022-11-25T20:29:15.614Z,99.90
2022-11-25T20:31:43.355Z,99.90
2022-11-25T20:34:10.932Z,99.90
2022-11-25T20:36:41.626Z,99.90
2022-11-25T20:39:17.332Z,99.90
2022-11-25T20:41:48.872Z,99.90
2022-11-25T20:44:17.590Z,99.90
2022-11-25T20:46:45.190Z,99.90
2022-11-25T20:49:27.216Z,99.90
2022-11-25T20:51:56.227Z,99.90
2022-11-25T20:54:26.651Z,99.90
2022-11-25T20:56:57.173Z,99.90
2022-11-25T20:59:25.037Z,99.90
2022-11-25T21:01:54.574Z,99.90
2022-11-25T21:04:22.583Z,99.90
2022-11-25T21:06:50.150Z,99.90
2022-11-25T21:09:24.923Z,99.90
2022-11-25T21:11:52.545Z,99.90
2022-11-25T21:14:20.558Z,99.90
2022-11-25T21:16:48.344Z,99.90
2022-11-25T21:19:16.142Z,99.90
2022-11-25T21:21:49.182Z,99.90
2022-11-25T21:24:31.596Z,99.90
2022-11-25T21:30:05.577Z,99.90
2022-11-25T21:32:34.491Z,99.90
2022-11-25T21:35:04.012Z,99.90
2022-11-25T21:37:35.689Z,99.90
2022-11-25T21:40:05.397Z,99.90
2022-11-25T21:42:33.069Z,99.90
2022-11-25T21:45:00.754Z,99.90
2022-11-25T21:47:30.336Z,99.90
2022-11-25T21:49:58.962Z,99.90
2022-11-25T21:52:26.643Z,99.90
2022-11-25T21:54:54.206Z,99.90
2022-11-25T21:57:27.205Z,99.90
2022-11-25T21:59:54.783Z,99.90
2022-11-25T22:02:23.707Z,99.90
2022-11-25T22:04:52.018Z,99.90
2022-11-25T22:07:19.809Z,99.90
2022-11-25T22:09:47.414Z,99.90
2022-11-25T22:12:29.449Z,99.90
2022-11-25T22:14:59.021Z,99.90
2022-11-25T22:17:26.877Z,99.90
2022-11-25T22:19:54.578Z,99.90
2022-11-25T22:22:22.377Z,99.90
2022-11-25T22:24:49.931Z,99.90
2022-11-25T22:27:42.433Z,99.90
2022-11-25T22:30:18.775Z,99.90
2022-11-25T22:32:48.462Z,99.90
2022-11-25T22:35:18.393Z,99.90
2022-11-25T22:37:51.962Z,99.90
2022-11-25T22:40:23.620Z,99.90
2022-11-25T22:42:53.085Z,99.90
2022-11-25T22:45:31.104Z,99.90
2022-11-25T22:48:03.146Z,99.90
2022-11-25T22:50:32.884Z,99.90
2022-11-25T22:53:01.151Z,99.90
2022-11-25T22:55:33.382Z,99.90
2022-11-25T22:58:01.777Z,99.90
2022-11-25T23:00:33.267Z,99.90
2022-11-25T23:03:02.940Z,99.90
2022-11-25T23:05:33.848Z,99.90
2022-11-25T23:08:09.868Z,99.90
2022-11-25T23:10:37.421Z,99.90
2022-11-25T23:13:04.973Z,99.90
2022-11-25T23:15:32.686Z,99.90
2022-11-25T23:18:02.141Z,99.90
2022-11-25T23:20:35.098Z,99.90
2022-11-25T23:23:11.809Z,99.90
2022-11-25T23:25:39.438Z,99.90
2022-11-25T23:28:06.951Z,99.90
2022-11-25T23:30:34.834Z,99.90
2022-11-25T23:33:04.332Z,99.90
2022-11-25T23:35:38.517Z,99.90
2022-11-25T23:38:08.818Z,99.90
2022-11-25T23:40:37.287Z,99.90
2022-11-25T23:43:15.530Z,99.90
2022-11-25T23:45:53.305Z,99.90
2022-11-25T23:48:24.626Z,99.90
2022-11-25T23:50:54.350Z,99.90
2022-11-25T23:53:27.226Z,99.90
2022-11-25T23:55:54.948Z,99.90
2022-11-25T23:58:23.453Z,99.90
